Time;durP1;ratioP1;P1;durP2;ratioP2;P2;SDS_P1;SDS_P2;PMS_P1;PMS_P2;Temp;Humidity;BMP_temperature;BMP_pressure;BME280_temperature;BME280_humidity;BME280_pressure;Samples;Min_cycle;Max_cycle;Signal;HPM_P1;HPM_P2
2022/04/28 00:02:00;;;;;;;81.20;35.10;;;;;;;8.48;70.29;99914.48;1761510;81;20983;-36
2022/04/28 00:04:26;;;;;;;69.70;34.03;;;;;;;8.45;69.87;99912.38;1761534;81;20979;-36
2022/04/28 00:06:52;;;;;;;65.72;32.30;;;;;;;8.45;70.45;99916.78;1761290;81;20980;-36
2022/04/28 00:09:18;;;;;;;73.97;34.70;;;;;;;8.39;70.65;99911.74;1761606;81;21457;-37
2022/04/28 00:11:44;;;;;;;68.72;32.90;;;;;;;8.37;70.87;99905.24;1761546;80;21898;-37
2022/04/28 00:14:09;;;;;;;69.12;33.53;;;;;;;8.34;70.97;99914.52;1761751;80;20982;-37
2022/04/28 00:16:35;;;;;;;76.40;35.38;;;;;;;8.32;71.27;99905.86;1761615;81;21458;-38
2022/04/28 00:19:04;;;;;;;77.12;34.40;;;;;;;8.25;71.52;99906.98;1761532;81;21532;-36
2022/04/28 00:21:30;;;;;;;68.97;34.88;;;;;;;8.21;71.70;99912.79;1761516;81;21561;-41
2022/04/28 00:23:56;;;;;;;73.45;34.13;;;;;;;8.17;71.69;99911.66;1761472;81;20959;-39
2022/04/28 00:26:22;;;;;;;68.75;32.80;;;;;;;8.13;71.89;99911.34;1761507;81;20983;-36
2022/04/28 00:28:48;;;;;;;73.55;33.58;;;;;;;8.08;72.41;99907.59;1761458;81;20987;-37
2022/04/28 00:31:14;;;;;;;71.55;33.10;;;;;;;8.02;72.73;99905.17;1761496;81;21022;-37
2022/04/28 00:33:42;;;;;;;66.95;33.23;;;;;;;7.96;72.75;99914.56;1761493;81;20987;-36
2022/04/28 00:36:09;;;;;;;64.37;32.45;;;;;;;7.91;73.18;99913.40;1761478;81;20995;-39
2022/04/28 00:38:35;;;;;;;77.72;34.65;;;;;;;7.89;73.30;99912.59;1761591;80;21329;-37
2022/04/28 00:41:01;;;;;;;74.15;33.80;;;;;;;7.84;72.88;99912.77;1761560;81;21591;-37
2022/04/28 00:43:31;;;;;;;64.53;32.15;;;;;;;7.81;72.78;99918.11;1761495;81;21007;-36
2022/04/28 00:45:57;;;;;;;71.80;33.28;;;;;;;7.79;73.57;99916.00;1761466;81;21026;-37
2022/04/28 00:51:08;;;;;;;75.52;32.88;;;;;;;7.73;73.40;99915.34;1748229;81;21024;-36
2022/04/28 00:53:41;;;;;;;62.30;30.97;;;;;;;7.72;73.52;99913.64;1748429;81;21450;-37
2022/04/28 00:56:09;;;;;;;59.63;30.15;;;;;;;7.72;74.11;99913.18;1748176;81;22057;-36
2022/04/28 00:58:38;;;;;;;64.65;29.95;;;;;;;7.71;74.06;99912.77;1748354;82;20964;-37
2022/04/28 01:01:04;;;;;;;54.20;29.85;;;;;;;7.72;73.99;99915.80;1748242;81;20987;-36
2022/04/28 01:03:30;;;;;;;63.68;31.70;;;;;;;7.73;73.29;99914.91;1748092;81;20968;-36
2022/04/28 01:05:58;;;;;;;73.70;32.95;;;;;;;7.73;73.55;99916.22;1748157;81;21019;-36
2022/04/28 01:08:24;;;;;;;69.35;29.90;;;;;;;7.73;73.45;99914.03;1748194;81;20991;-36
2022/04/28 01:10:52;;;;;;;64.53;30.88;;;;;;;7.74;73.85;99912.67;1748159;81;20991;-36
2022/04/28 01:13:18;;;;;;;62.45;31.70;;;;;;;7.73;73.28;99906.17;1748150;81;20992;-36
2022/04/28 01:15:48;;;;;;;61.50;31.17;;;;;;;7.68;73.39;99907.66;1748107;81;20984;-36
2022/04/28 01:18:15;;;;;;;73.95;32.08;;;;;;;7.66;73.76;99909.47;1748360;81;21168;-36
2022/04/28 01:20:42;;;;;;;70.65;31.90;;;;;;;7.67;73.21;99908.08;1748260;81;21000;-37
2022/04/28 01:23:10;;;;;;;67.82;32.93;;;;;;;7.69;73.16;99908.92;1748393;81;21023;-37
2022/04/28 01:25:36;;;;;;;60.05;29.35;;;;;;;7.69;73.12;99905.42;1748261;81;20988;-36
2022/04/28 01:28:02;;;;;;;67.25;31.90;;;;;;;7.66;73.32;99904.23;1748132;81;20956;-38
2022/04/28 01:30:28;;;;;;;60.23;30.82;;;;;;;7.60;73.55;99902.65;1748134;81;20977;-36
2022/04/28 01:32:58;;;;;;;81.30;32.70;;;;;;;7.60;73.49;99893.48;1737683;82;21532;-37
2022/04/28 01:35:25;;;;;;;68.60;32.65;;;;;;;7.60;73.18;99891.33;1748124;81;21023;-37
2022/04/28 01:37:52;;;;;;;60.67;31.33;;;;;;;7.59;73.08;99892.27;1748317;82;20991;-36
2022/04/28 01:40:19;;;;;;;63.38;29.65;;;;;;;7.59;73.42;99895.72;1748239;81;21492;-37
2022/04/28 01:42:46;;;;;;;70.33;33.90;;;;;;;7.57;73.62;99899.31;1748422;81;20992;-37
2022/04/28 01:45:12;;;;;;;;;;;;;;;7.56;73.62;99901.05;1750819;81;20987;-36
2022/04/28 01:47:41;;;;;;;73.20;30.75;;;;;;;7.52;73.21;99898.14;1749282;81;20405;-37
2022/04/28 01:50:10;;;;;;;75.67;33.08;;;;;;;7.52;73.47;99895.52;1761420;81;21505;-37
2022/04/28 01:55:21;;;;;;;66.55;31.20;;;;;;;7.51;73.82;99900.34;1761526;80;20959;-36
2022/04/28 01:57:47;;;;;;;67.58;30.95;;;;;;;7.45;74.12;99896.17;1761451;81;20983;-36
2022/04/28 02:00:14;;;;;;;61.75;31.85;;;;;;;7.45;73.46;99903.17;1761511;81;20979;-36
2022/04/28 02:02:42;;;;;;;65.52;29.95;;;;;;;7.43;73.75;99903.67;1761569;81;20983;-37
2022/04/28 02:05:09;;;;;;;58.70;29.80;;;;;;;7.44;73.79;99902.33;1761608;81;21026;-36
2022/04/28 02:07:35;;;;;;;62.75;30.92;;;;;;;7.38;74.05;99902.50;1761431;81;20980;-38
2022/04/28 02:10:04;;;;;;;59.25;30.43;;;;;;;7.34;74.44;99907.44;1761410;81;20984;-37
2022/04/28 02:12:31;;;;;;;59.83;29.57;;;;;;;7.34;74.24;99906.13;1761457;81;20987;-38
2022/04/28 02:14:56;;;;;;;69.50;30.57;;;;;;;7.36;74.96;99898.23;1761595;81;20995;-37
2022/04/28 02:17:27;;;;;;;72.92;31.57;;;;;;;7.35;74.17;99891.28;1761442;81;20979;-37
2022/04/28 02:19:54;;;;;;;57.78;29.75;;;;;;;7.34;74.71;99902.67;1761443;81;20979;-36
2022/04/28 02:22:21;;;;;;;70.90;29.60;;;;;;;7.34;74.62;99900.05;1761644;81;21473;-37
2022/04/28 02:24:47;;;;;;;54.63;29.90;;;;;;;7.33;74.89;99894.41;1761696;81;20952;-37
2022/04/28 02:27:13;;;;;;;61.60;30.55;;;;;;;7.29;74.84;99898.45;1761408;81;21040;-36
2022/04/28 02:29:39;;;;;;;58.17;29.20;;;;;;;7.27;74.81;99893.69;1761450;81;21108;-37
2022/04/28 02:32:06;;;;;;;68.33;28.98;;;;;;;7.30;74.62;99892.30;1761448;81;21548;-36
2022/04/28 02:34:32;;;;;;;62.73;28.40;;;;;;;7.28;74.51;99892.80;1761696;81;20991;-37
2022/04/28 02:36:58;;;;;;;71.75;31.93;;;;;;;7.23;74.87;99888.16;1761398;81;21491;-37
2022/04/28 02:39:23;;;;;;;67.15;29.82;;;;;;;7.23;74.85;99889.93;1761489;81;21481;-37
2022/04/28 02:43:26;;;;;;;74.00;33.15;;;;;;;7.23;74.75;99886.85;1800452;79;23517;-36
2022/04/28 02:45:52;;;;;;;60.35;30.15;;;;;;;7.21;74.45;99892.59;1760453;81;21043;-36
2022/04/28 02:48:17;;;;;;;71.77;31.45;;;;;;;7.18;74.73;99890.52;1741226;81;21065;-36
2022/04/28 02:50:43;;;;;;;64.92;31.10;;;;;;;7.12;75.01;99887.66;1760177;80;21067;-37
2022/04/28 02:53:09;;;;;;;74.50;31.80;;;;;;;7.09;75.14;99889.92;1760538;81;21007;-36
2022/04/28 02:55:35;;;;;;;75.28;33.48;;;;;;;7.06;75.04;99890.47;1760637;81;21026;-36
2022/04/28 02:58:01;;;;;;;68.65;32.40;;;;;;;7.10;74.25;99882.47;1760655;81;21083;-36
2022/04/28 03:00:27;;;;;;;58.30;30.43;;;;;;;7.09;74.81;99885.13;1760683;81;21539;-36
2022/04/28 03:02:53;;;;;;;66.05;31.30;;;;;;;7.04;75.14;99883.10;1760596;81;21286;-35
2022/04/28 03:05:19;;;;;;;62.80;30.92;;;;;;;6.98;75.52;99886.77;1760567;80;21167;-36
2022/04/28 03:10:53;;;;;;;63.95;30.30;;;;;;;6.91;75.80;99889.16;1761848;80;21413;-36
2022/04/28 03:13:18;;;;;;;76.62;31.48;;;;;;;6.85;76.00;99890.20;1760411;81;20952;-36
2022/04/28 03:15:46;;;;;;;76.33;31.40;;;;;;;6.83;76.69;99892.48;1761373;81;20987;-37
2022/04/28 03:18:15;;;;;;;85.30;34.53;;;;;;;6.85;76.65;99894.59;1760929;81;20990;-35
2022/04/28 03:20:42;;;;;;;75.97;31.68;;;;;;;6.86;75.92;99899.78;1760623;81;20955;-36
2022/04/28 03:23:10;;;;;;;71.23;30.37;;;;;;;6.87;75.97;99901.47;1761929;81;21042;-37
2022/04/28 03:25:36;;;;;;;77.60;31.30;;;;;;;6.84;76.68;99896.79;1761841;80;21719;-36
2022/04/28 03:28:02;;;;;;;82.72;33.42;;;;;;;6.84;76.73;99902.89;1761743;81;20975;-36
2022/04/28 03:30:28;;;;;;;76.42;32.58;;;;;;;6.82;77.04;99898.17;1761715;81;20983;-36
2022/04/28 03:32:54;;;;;;;90.90;31.42;;;;;;;6.85;76.64;99901.13;1761745;80;21437;-35
2022/04/28 03:35:19;;;;;;;74.27;29.82;;;;;;;6.90;76.56;99904.00;1761727;80;21034;-36
2022/04/28 03:37:47;;;;;;;76.33;30.20;;;;;;;6.92;76.13;99899.58;1761683;81;20987;-36
2022/04/28 03:40:14;;;;;;;76.55;31.55;;;;;;;6.92;76.29;99898.27;1761828;81;20989;-36
2022/04/28 03:42:40;;;;;;;86.92;33.05;;;;;;;6.95;76.21;99903.00;1754091;81;21533;-37
2022/04/28 03:45:07;;;;;;;72.97;31.45;;;;;;;7.02;76.11;99906.71;1748867;81;21035;-36
2022/04/28 03:47:35;;;;;;;71.42;30.92;;;;;;;7.09;76.81;99911.28;1748899;81;21043;-36
2022/04/28 03:50:01;;;;;;;;;;;;;;;7.13;77.40;99907.69;1751255;81;20996;-36
2022/04/28 03:52:26;;;;;;;86.20;31.87;;;;;;;7.19;76.77;99906.64;1748653;81;20418;-36
2022/04/28 03:54:52;;;;;;;74.85;31.23;;;;;;;7.29;75.71;99909.34;1748131;81;20992;-37
2022/04/28 03:57:18;;;;;;;75.65;31.33;;;;;;;7.37;75.00;99907.78;1748097;81;20992;-35
2022/04/28 03:59:43;;;;;;;71.20;31.20;;;;;;;7.46;74.72;99910.13;1748123;81;21026;-35
2022/04/28 04:02:10;;;;;;;74.15;31.80;;;;;;;7.49;74.41;99912.63;1747411;81;22238;-36
2022/04/28 04:04:36;;;;;;;83.12;34.38;;;;;;;7.55;74.17;99915.06;1746959;81;21536;-36
2022/04/28 04:07:02;;;;;;;74.30;32.25;;;;;;;7.59;74.07;99914.05;1746736;81;21023;-36
2022/04/28 04:09:28;;;;;;;73.52;32.15;;;;;;;7.66;74.13;99917.33;1746776;81;21082;-35
2022/04/28 04:11:54;;;;;;;88.22;35.48;;;;;;;7.70;73.92;99922.85;1746895;81;21062;-36
2022/04/28 04:14:20;;;;;;;95.12;35.92;;;;;;;7.77;73.50;99916.97;1746873;81;21031;-36
2022/04/28 04:16:46;;;;;;;84.05;33.95;;;;;;;7.83;73.53;99924.14;1747672;81;21513;-37
2022/04/28 04:19:12;;;;;;;83.00;35.45;;;;;;;7.87;73.34;99923.13;1748174;81;21504;-36
2022/04/28 04:21:39;;;;;;;80.32;34.18;;;;;;;7.91;73.51;99926.95;1748001;81;20980;-37
2022/04/28 04:24:06;;;;;;;108.95;38.15;;;;;;;7.96;73.80;99932.89;1748240;82;21093;-36
2022/04/28 04:26:32;;;;;;;103.00;41.23;;;;;;;8.02;73.52;99926.13;1748305;81;21039;-36
2022/04/28 04:28:58;;;;;;;100.02;41.02;;;;;;;8.08;73.04;99935.09;1748023;82;20956;-36
2022/04/28 04:34:08;;;;;;;93.12;39.90;;;;;;;8.16;72.75;99939.60;1748008;82;20979;-37
2022/04/28 04:36:34;;;;;;;99.10;41.63;;;;;;;8.22;72.67;99942.45;1748068;81;21000;-36
2022/04/28 04:39:01;;;;;;;101.33;42.10;;;;;;;8.25;72.54;99941.89;1748100;81;20991;-37
2022/04/28 04:41:27;;;;;;;93.00;42.57;;;;;;;8.28;72.46;99946.19;1748249;81;20984;-37
2022/04/28 04:43:53;;;;;;;99.25;43.23;;;;;;;8.32;72.46;99945.16;1737357;82;21230;-35
2022/04/28 04:46:18;;;;;;;106.55;43.40;;;;;;;8.35;72.13;99954.23;1748008;82;21033;-36
2022/04/28 04:48:44;;;;;;;103.38;44.75;;;;;;;8.36;71.94;99957.24;1748014;81;21112;-36
2022/04/28 04:51:10;;;;;;;103.67;44.18;;;;;;;8.38;71.83;99959.81;1748105;81;21476;-38
2022/04/28 04:53:35;;;;;;;97.47;45.08;;;;;;;8.36;71.90;99963.80;1748167;81;20968;-37
2022/04/28 04:56:01;;;;;;;105.90;46.98;;;;;;;8.36;72.00;99960.33;1748104;81;20992;-44
2022/04/28 04:58:27;;;;;;;95.15;46.80;;;;;;;8.34;71.98;99955.13;1747998;82;20968;-37
2022/04/28 05:00:54;;;;;;;96.57;45.33;;;;;;;8.34;72.05;99955.13;1748051;81;20981;-37
2022/04/28 05:03:19;;;;;;;116.77;47.07;;;;;;;8.36;72.14;99951.16;1748223;81;20960;-37
2022/04/28 05:05:45;;;;;;;103.40;45.90;;;;;;;8.37;72.13;99951.10;1748060;81;22314;-37
2022/04/28 05:08:12;;;;;;;98.70;46.70;;;;;;;8.40;72.16;99951.44;1748108;82;21464;-38
2022/04/28 05:10:38;;;;;;;84.90;45.08;;;;;;;8.39;72.42;99958.45;1748274;81;21038;-37
2022/04/28 05:13:04;;;;;;;95.47;46.02;;;;;;;8.45;72.92;99954.78;1748020;81;20964;-36
2022/04/28 05:15:30;;;;;;;100.97;49.10;;;;;;;8.47;73.22;99950.34;1748098;81;20960;-37
2022/04/28 05:17:56;;;;;;;100.90;46.65;;;;;;;8.50;72.87;99954.17;1748029;81;21039;-36
2022/04/28 05:20:22;;;;;;;88.75;47.27;;;;;;;8.55;72.34;99959.23;1748041;81;21000;-39
2022/04/28 05:22:48;;;;;;;94.67;47.58;;;;;;;8.60;72.14;99959.48;1748140;81;20984;-37
2022/04/28 05:25:15;;;;;;;101.87;47.33;;;;;;;8.65;72.91;99967.17;1748217;81;21023;-37
2022/04/28 05:27:41;;;;;;;97.05;46.90;;;;;;;8.72;72.45;99967.34;1748140;81;21003;-40
2022/04/28 05:30:08;;;;;;;95.75;43.20;;;;;;;8.81;72.33;99963.53;1748007;81;20986;-36
2022/04/28 05:32:34;;;;;;;93.58;41.92;;;;;;;8.88;72.83;99968.95;1748089;81;21472;-38
2022/04/28 05:35:00;;;;;;;102.78;36.42;;;;;;;8.98;72.21;99970.30;1748061;81;20995;-38
2022/04/28 05:37:26;;;;;;;98.40;37.55;;;;;;;9.09;72.67;99980.38;1747980;81;21035;-40
2022/04/28 05:39:52;;;;;;;94.55;41.30;;;;;;;9.17;72.71;99984.05;1747998;81;21403;-37
2022/04/28 05:42:18;;;;;;;106.00;43.52;;;;;;;9.27;71.86;99991.10;1747844;80;21008;-38
2022/04/28 05:47:29;;;;;;;96.37;42.75;;;;;;;9.30;71.56;99985.74;1748041;82;21080;-38
2022/04/28 05:49:55;;;;;;;104.47;44.37;;;;;;;9.30;70.98;99985.28;1748353;81;20991;-37
2022/04/28 05:52:21;;;;;;;113.32;46.28;;;;;;;9.34;70.84;99984.70;1747964;81;21111;-38
2022/04/28 05:54:47;;;;;;;104.72;45.63;;;;;;;9.40;71.02;99985.33;1747985;81;21008;-37
2022/04/28 05:57:13;;;;;;;100.15;44.67;;;;;;;9.40;70.94;99979.20;1747974;82;20964;-37
2022/04/28 05:59:39;;;;;;;102.70;45.43;;;;;;;9.46;70.96;99980.28;1747956;81;20964;-37
2022/04/28 06:02:06;;;;;;;111.08;47.50;;;;;;;9.49;70.88;99978.83;1748011;81;21410;-37
2022/04/28 06:04:32;;;;;;;117.90;49.70;;;;;;;9.56;70.74;99986.86;1748311;81;20968;-38
2022/04/28 06:06:58;;;;;;;119.02;48.75;;;;;;;9.65;70.13;99984.80;1747790;81;21019;-38
2022/04/28 06:09:24;;;;;;;101.42;46.08;;;;;;;9.73;69.53;99989.27;1746795;81;21051;-38
2022/04/28 06:11:50;;;;;;;79.00;40.63;;;;;;;9.79;68.61;99983.78;1747883;81;21008;-40
2022/04/28 06:14:15;;;;;;;86.12;40.48;;;;;;;9.88;68.15;99989.12;1747976;81;21035;-39
2022/04/28 06:16:41;;;;;;;77.10;39.48;;;;;;;9.92;67.32;99990.70;1747974;81;21042;-38
2022/04/28 06:19:07;;;;;;;88.60;41.33;;;;;;;9.97;66.31;99994.84;1748037;81;20975;-40
2022/04/28 06:21:33;;;;;;;74.12;36.68;;;;;;;10.03;66.32;99991.56;1748066;81;21023;-38
2022/04/28 06:23:59;;;;;;;67.15;33.75;;;;;;;10.09;65.36;99990.83;1748089;81;20996;-38
2022/04/28 06:26:24;;;;;;;66.62;33.45;;;;;;;10.16;65.36;99994.91;1748090;81;21509;-38
2022/04/28 06:28:50;;;;;;;61.25;32.25;;;;;;;10.24;64.74;99997.67;1747915;81;21541;-38
2022/04/28 06:31:16;;;;;;;55.35;27.58;;;;;;;10.29;62.75;99995.70;1747974;81;21045;-39
2022/04/28 06:33:42;;;;;;;55.92;28.23;;;;;;;10.35;62.76;99997.66;1747958;82;21031;-37
2022/04/28 06:36:08;;;;;;;54.88;27.15;;;;;;;10.44;61.77;99997.72;1748105;81;21000;-38
2022/04/28 06:38:33;;;;;;;36.28;20.50;;;;;;;10.52;61.68;99997.38;1748112;81;20999;-39
2022/04/28 06:40:59;;;;;;;42.23;21.45;;;;;;;10.59;60.43;99992.25;1747974;81;20996;-38
2022/04/28 06:43:25;;;;;;;38.73;20.50;;;;;;;10.63;59.88;99995.13;1755242;80;21058;-39
2022/04/28 06:48:35;;;;;;;39.55;18.48;;;;;;;10.79;59.76;99995.74;1761397;81;21015;-37
2022/04/28 06:51:01;;;;;;;37.53;17.70;;;;;;;10.89;59.27;99997.05;1761403;80;21442;-37
2022/04/28 06:53:27;;;;;;;30.92;17.00;;;;;;;10.94;58.63;99996.38;1761289;81;21030;-37
2022/04/28 06:55:52;;;;;;;59.03;21.95;;;;;;;10.98;58.61;99997.94;1761313;81;20995;-37
2022/04/28 06:58:21;;;;;;;54.23;25.05;;;;;;;11.02;58.46;100001.29;1761342;81;20972;-38
2022/04/28 07:00:46;;;;;;;51.98;24.82;;;;;;;10.99;58.00;100000.98;1761109;81;21018;-37
2022/04/28 07:03:11;;;;;;;52.67;24.80;;;;;;;11.01;58.27;100001.77;1761262;81;20995;-38
2022/04/28 07:05:39;;;;;;;46.30;22.13;;;;;;;11.04;58.65;100002.95;1761448;81;20995;-39
2022/04/28 07:08:05;;;;;;;44.48;21.20;;;;;;;11.09;59.22;100006.20;1761429;81;21038;-37
2022/04/28 07:10:31;;;;;;;44.13;22.80;;;;;;;11.12;59.12;100003.91;1761516;80;20975;-38
2022/04/28 07:12:57;;;;;;;27.67;15.03;;;;;;;11.17;59.18;100008.50;1761378;80;21015;-38
2022/04/28 07:15:23;;;;;;;27.90;15.93;;;;;;;11.19;57.62;100005.77;1761352;81;21170;-37
2022/04/28 07:17:49;;;;;;;34.23;15.72;;;;;;;11.20;57.49;100006.17;1761287;81;20995;-37
2022/04/28 07:20:15;;;;;;;35.35;14.75;;;;;;;11.22;57.60;100012.22;1761339;81;21491;-38
2022/04/28 07:22:41;;;;;;;36.33;16.52;;;;;;;11.23;56.69;100016.09;1761275;81;21480;-38
2022/04/28 07:25:07;;;;;;;28.35;15.45;;;;;;;11.30;57.49;100009.63;1761286;80;21006;-38
2022/04/28 07:27:33;;;;;;;25.33;14.77;;;;;;;11.39;57.72;100013.61;1761510;81;20987;-38
2022/04/28 07:29:59;;;;;;;29.67;13.83;;;;;;;11.46;57.22;100014.16;1761377;81;21520;-37
2022/04/28 07:32:25;;;;;;;30.48;14.30;;;;;;;11.53;56.63;100013.81;1761393;81;20995;-37
2022/04/28 07:34:50;;;;;;;25.23;13.98;;;;;;;11.68;57.45;100021.91;1761476;81;21001;-37
2022/04/28 07:37:16;;;;;;;44.25;17.35;;;;;;;11.80;56.79;100010.75;1761397;81;20999;-40
2022/04/28 07:39:42;;;;;;;28.15;13.72;;;;;;;11.90;56.58;100017.80;1761314;80;21015;-38
2022/04/28 07:42:08;;;;;;;25.70;13.72;;;;;;;12.04;57.02;100017.09;1761423;81;21501;-37
2022/04/28 07:44:35;;;;;;;26.60;12.25;;;;;;;12.12;56.10;100012.31;1748998;80;21436;-38
2022/04/28 07:47:01;;;;;;;;;;;;;;;12.22;55.00;100006.09;1750630;81;20984;-38
2022/04/28 07:49:27;;;;;;;22.10;11.10;;;;;;;12.26;55.14;100011.15;1748134;81;20386;-37
2022/04/28 07:51:52;;;;;;;29.27;12.20;;;;;;;12.29;53.63;100007.48;1748061;81;20980;-38
2022/04/28 07:54:18;;;;;;;19.02;11.40;;;;;;;12.37;53.87;100013.24;1748043;81;21035;-38
2022/04/28 07:56:47;;;;;;;21.40;11.78;;;;;;;12.40;53.65;100009.11;1748065;81;20972;-38
2022/04/28 07:59:12;;;;;;;22.32;12.03;;;;;;;12.49;54.58;100001.19;1748081;81;21469;-38
2022/04/28 08:01:38;;;;;;;20.37;10.82;;;;;;;12.56;53.80;100011.81;1748125;81;20992;-39
2022/04/28 08:04:04;;;;;;;19.60;11.57;;;;;;;12.65;54.02;100009.17;1748111;81;21002;-39
2022/04/28 08:06:30;;;;;;;25.95;11.57;;;;;;;12.74;53.50;100011.80;1748036;81;21055;-38
2022/04/28 08:08:56;;;;;;;17.02;10.43;;;;;;;12.84;53.77;100014.31;1748127;82;20988;-37
2022/04/28 08:11:21;;;;;;;15.58;10.08;;;;;;;12.94;53.18;100010.26;1748069;81;20991;-39
2022/04/28 08:13:48;;;;;;;19.70;11.08;;;;;;;12.98;52.10;100003.88;1748108;81;20996;-39
2022/04/28 08:16:14;;;;;;;14.27;9.77;;;;;;;13.09;51.94;100013.02;1748372;81;20972;-39
2022/04/28 08:18:39;;;;;;;13.05;8.53;;;;;;;13.19;51.53;100015.07;1748107;81;21524;-39
2022/04/28 08:21:08;;;;;;;14.95;8.25;;;;;;;13.28;49.95;100016.36;1748164;81;21043;-39
2022/04/28 08:23:33;;;;;;;12.98;8.78;;;;;;;13.33;49.57;100012.16;1748002;81;21031;-39
2022/04/28 08:25:59;;;;;;;19.65;9.60;;;;;;;13.44;49.61;100021.66;1748089;81;20988;-37
2022/04/28 08:28:25;;;;;;;17.87;9.03;;;;;;;13.56;49.88;100018.34;1748036;82;20980;-40
2022/04/28 08:30:51;;;;;;;11.40;7.42;;;;;;;13.68;49.13;100023.87;1748061;81;21050;-37
2022/04/28 08:33:17;;;;;;;12.80;7.40;;;;;;;13.74;48.14;100024.38;1748029;81;21135;-39
2022/04/28 08:35:43;;;;;;;12.75;7.92;;;;;;;13.81;47.92;100017.81;1748045;81;21035;-40
2022/04/28 08:38:09;;;;;;;15.32;9.13;;;;;;;13.92;47.58;100021.64;1748072;82;20999;-39
2022/04/28 08:40:35;;;;;;;13.03;8.43;;;;;;;14.04;47.62;100024.88;1748034;81;20972;-37
2022/04/28 08:43:04;;;;;;;16.50;7.97;;;;;;;14.15;47.05;100017.20;1750175;81;21023;-39
2022/04/28 08:45:36;;;;;;;12.70;8.38;;;;;;;14.27;46.78;100017.41;1761392;81;21508;-38
2022/04/28 08:48:03;;;;;;;13.13;8.33;;;;;;;14.43;46.79;100015.55;1761158;81;20956;-37
2022/04/28 08:50:29;;;;;;;19.13;9.53;;;;;;;14.54;46.20;100009.14;1761587;81;21633;-38
2022/04/28 08:52:55;;;;;;;12.60;8.25;;;;;;;14.71;46.48;100011.27;1744571;81;21079;-38
2022/04/28 08:55:22;;;;;;;13.68;8.25;;;;;;;14.87;44.85;100001.92;1761395;81;21002;-39
2022/04/28 08:57:47;;;;;;;15.38;8.53;;;;;;;15.11;46.06;100006.16;1761402;81;21042;-36
2022/04/28 09:00:14;;;;;;;14.78;9.45;;;;;;;15.26;45.72;100010.50;1761517;81;20999;-40
2022/04/28 09:02:40;;;;;;;16.05;8.45;;;;;;;15.44;46.02;100008.45;1761485;81;21621;-38
2022/04/28 09:05:08;;;;;;;14.20;7.37;;;;;;;15.68;45.23;100013.12;1761402;80;21011;-39
2022/04/28 09:07:40;;;;;;;9.68;6.90;;;;;;;15.92;43.96;100014.70;1761340;81;21007;-38
2022/04/28 09:10:30;;;;;;;11.08;6.47;;;;;;;16.21;42.98;100011.88;1760704;81;21034;-39
2022/04/28 09:15:52;;;;;;;11.90;6.83;;;;;;;16.72;42.20;100008.42;1761429;81;21043;-37
2022/04/28 09:18:20;;;;;;;10.90;6.97;;;;;;;17.15;41.72;100008.94;1761334;81;20999;-43
2022/04/28 09:20:47;;;;;;;8.00;5.97;;;;;;;17.55;40.86;100019.36;1761206;81;21054;-38
2022/04/28 09:23:15;;;;;;;7.72;5.35;;;;;;;17.98;41.53;100020.23;1761773;81;21003;-37
2022/04/28 09:25:43;;;;;;;6.12;5.10;;;;;;;18.39;38.78;100018.92;1761301;81;21019;-41
2022/04/28 09:28:10;;;;;;;10.30;6.08;;;;;;;18.97;39.84;100007.39;1744782;81;20967;-42
2022/04/28 09:30:49;;;;;;;12.05;6.45;;;;;;;19.47;38.66;100006.50;1761659;81;21538;-43
2022/04/28 09:33:18;;;;;;;10.03;5.05;;;;;;;19.97;38.88;100005.16;1761246;81;21591;-40
2022/04/28 09:35:49;;;;;;;6.20;4.58;;;;;;;20.15;37.79;100011.62;1761592;81;21026;-38
2022/04/28 09:38:16;;;;;;;8.55;4.45;;;;;;;20.00;36.61;100010.26;1693666;85;20995;-41
2022/04/28 09:43:34;;;;;;;7.17;4.30;;;;;;;19.26;32.44;100014.89;1692962;83;21015;-37
2022/04/28 09:46:01;;;;;;;6.55;4.10;;;;;;;19.86;33.49;100006.89;1756125;81;21487;-37
2022/04/28 09:48:32;;;;;;;6.72;4.17;;;;;;;20.57;34.14;100004.95;1755913;81;21426;-43
2022/04/28 09:51:04;;;;;;;4.60;3.98;;;;;;;20.92;31.40;100017.15;1755571;81;21453;-37
2022/04/28 09:53:35;;;;;;;6.10;4.17;;;;;;;21.66;33.20;100010.63;1755910;81;21369;-41
2022/04/28 09:56:06;;;;;;;9.00;4.25;;;;;;;22.00;31.82;100016.94;1755940;80;21023;-39
2022/04/28 09:58:33;;;;;;;6.75;3.85;;;;;;;22.33;30.52;100014.33;1757272;80;20993;-37
2022/04/28 10:01:02;;;;;;;;;;;;;;;22.53;31.09;100014.31;1777271;80;21460;-43
2022/04/28 10:03:39;;;;;;;3.77;3.10;;;;;;;23.14;27.55;100004.47;1768334;81;20164;-38
2022/04/28 10:06:03;;;;;;;5.05;3.42;;;;;;;23.21;29.23;100012.74;1767001;80;20955;-40
2022/04/28 10:08:35;;;;;;;8.28;3.70;;;;;;;22.11;28.41;100009.25;1768416;80;21074;-40
2022/04/28 10:11:05;;;;;;;6.67;4.35;;;;;;;22.05;28.79;100016.03;1768303;81;21019;-39
2022/04/28 10:13:32;;;;;;;5.35;4.22;;;;;;;21.35;29.37;100016.52;1769012;80;20995;-38
2022/04/28 10:16:08;;;;;;;9.50;4.30;;;;;;;22.04;29.92;100019.67;1768797;80;21022;-40
2022/04/28 10:18:45;;;;;;;4.60;3.72;;;;;;;22.53;28.91;100009.78;1768586;81;21038;-37
2022/04/28 10:21:16;;;;;;;;;;;;;;;22.82;27.54;100012.89;1762810;80;21006;-39
2022/04/28 10:32:22;;;;;;;5.60;4.50;;;;;;;24.22;26.61;100009.95;1767886;80;21027;-40
2022/04/28 10:35:02;;;;;;;4.22;3.83;;;;;;;24.40;24.68;100001.88;1767888;80;21078;-42
2022/04/28 10:37:42;;;;;;;4.40;3.33;;;;;;;24.77;25.59;99999.44;1768014;81;21112;-40
2022/04/28 10:40:16;;;;;;;6.50;3.70;;;;;;;25.13;25.42;99997.94;1767783;81;21656;-35
2022/04/28 10:42:48;;;;;;;6.28;4.22;;;;;;;25.18;24.53;100006.37;1766240;81;21054;-36
2022/04/28 10:45:22;;;;;;;6.85;4.25;;;;;;;24.34;23.65;100000.66;1772925;79;21654;-38
2022/04/28 10:47:52;;;;;;;6.70;5.00;;;;;;;24.02;25.28;100005.26;1774778;81;21038;-39
2022/04/28 10:50:25;;;;;;;8.90;4.95;;;;;;;23.36;25.64;100014.45;1766995;81;21006;-35
2022/04/28 10:53:05;;;;;;;7.15;5.08;;;;;;;22.55;26.49;100005.63;1772069;79;21056;-37
2022/04/28 10:55:44;;;;;;;7.75;4.53;;;;;;;22.07;26.83;100012.71;1766424;81;21484;-40
2022/04/28 10:58:26;;;;;;;8.23;4.58;;;;;;;21.92;26.66;100014.10;1774281;81;21515;-38
2022/04/28 11:01:00;;;;;;;6.92;4.22;;;;;;;22.01;26.91;100009.23;1773991;81;20978;-46
2022/04/28 11:03:56;;;;;;;6.08;4.00;;;;;;;21.58;26.54;100016.67;1773365;79;21570;-41
2022/04/28 11:06:31;;;;;;;11.93;3.83;;;;;;;20.96;27.73;100011.88;1747521;81;21010;-48
2022/04/28 11:09:02;;;;;;;8.13;4.25;;;;;;;20.30;28.35;100010.82;1773331;79;21026;-40
2022/04/28 11:11:45;;;;;;;7.90;4.97;;;;;;;19.79;29.01;100009.70;1773870;81;21058;-40
2022/04/28 11:14:12;;;;;;;14.05;6.22;;;;;;;19.41;29.83;100024.34;1773765;79;21025;-43
2022/04/28 11:16:43;;;;;;;7.60;5.83;;;;;;;18.99;30.76;100021.44;1773445;79;21073;-38
2022/04/28 11:19:11;;;;;;;9.75;6.55;;;;;;;19.02;31.01;100017.21;1774187;81;20994;-43
2022/04/28 11:21:39;;;;;;;11.12;6.37;;;;;;;18.83;32.62;100015.16;1774670;81;21017;-44
2022/04/28 11:24:07;;;;;;;12.60;7.28;;;;;;;18.87;33.03;100020.60;1773967;79;21022;-40
2022/04/28 11:26:35;;;;;;;10.20;6.35;;;;;;;19.77;32.71;100017.49;1774415;79;21026;-38
2022/04/28 11:29:10;;;;;;;15.88;7.60;;;;;;;21.04;32.07;100015.22;1773106;79;21010;-39
2022/04/28 11:31:46;;;;;;;12.58;6.42;;;;;;;22.16;30.52;100017.22;1759054;81;21054;-37
2022/04/28 11:36:54;;;;;;;10.72;5.20;;;;;;;21.73;28.33;100010.93;1819446;79;22961;-39
2022/04/28 11:39:24;;;;;;;12.78;5.67;;;;;;;21.05;29.48;100009.73;1791664;80;21071;-36
2022/04/28 11:41:52;;;;;;;6.72;5.25;;;;;;;20.35;29.79;100010.45;1791957;80;21017;-40
2022/04/28 11:44:18;;;;;;;9.88;6.47;;;;;;;19.89;29.62;100011.14;1790948;80;21827;-39
2022/04/28 11:46:52;;;;;;;15.85;6.28;;;;;;;19.36;30.18;100015.86;1792129;80;21003;-38
2022/04/28 11:49:20;;;;;;;10.72;5.78;;;;;;;18.93;31.15;100013.45;1791334;80;21015;-36
2022/04/28 11:51:47;;;;;;;12.50;6.45;;;;;;;18.66;31.90;100011.58;1791533;80;21487;-38
2022/04/28 11:54:24;;;;;;;11.38;6.55;;;;;;;18.53;32.53;100017.85;1792574;80;21002;-38
2022/04/28 11:56:51;;;;;;;9.70;6.45;;;;;;;18.15;33.07;100018.11;1791644;80;21007;-43
2022/04/28 11:59:19;;;;;;;10.30;5.60;;;;;;;18.06;34.15;100020.98;1792202;80;21162;-38